createdAt,value
2019-03-21T00:00:00.406Z,33.47
2019-03-21T00:00:02.390Z,33.45
2019-03-21T00:00:05.408Z,33.47
2019-03-21T00:00:08.397Z,33.47
2019-03-21T00:00:11.395Z,33.45
2019-03-21T00:00:14.376Z,33.47
2019-03-21T00:00:17.387Z,33.47
2019-03-21T00:00:20.397Z,33.45
2019-03-21T00:00:23.409Z,33.47
2019-03-21T00:00:26.397Z,33.35
2019-03-21T00:00:29.417Z,33.35
2019-03-21T00:00:32.396Z,33.36
2019-03-21T00:00:35.407Z,33.35
2019-03-21T00:00:38.396Z,33.35
2019-03-21T00:00:41.422Z,33.35
2019-03-21T00:00:44.398Z,33.35
2019-03-21T00:00:49.517Z,33.36
2019-03-21T00:00:52.387Z,33.35
2019-03-21T00:00:55.400Z,33.35
2019-03-21T00:00:58.420Z,33.36
2019-03-21T00:01:01.409Z,33.35
2019-03-21T00:01:04.398Z,33.36
2019-03-21T00:01:07.377Z,33.35
2019-03-21T00:01:10.380Z,33.36
2019-03-21T00:01:13.387Z,33.35
2019-03-21T00:01:16.387Z,33.35
2019-03-21T00:01:19.378Z,33.35
2019-03-21T00:01:21.396Z,33.35
2019-03-21T00:01:24.389Z,33.35
2019-03-21T00:01:27.397Z,33.36
2019-03-21T00:01:30.397Z,33.36
2019-03-21T00:01:33.357Z,33.36
2019-03-21T00:01:36.417Z,33.35
2019-03-21T00:01:39.379Z,33.35
2019-03-21T00:01:42.399Z,33.35
2019-03-21T00:01:45.389Z,33.26
2019-03-21T00:01:48.440Z,33.25
2019-03-21T00:01:51.397Z,33.25
2019-03-21T00:01:54.386Z,33.35
2019-03-21T00:01:57.367Z,33.25
2019-03-21T00:02:00.377Z,33.25
2019-03-21T00:02:03.445Z,33.25
2019-03-21T00:02:06.396Z,33.25
2019-03-21T00:02:09.415Z,33.25
2019-03-21T00:02:12.387Z,33.26
2019-03-21T00:02:15.396Z,33.25
2019-03-21T00:02:18.377Z,33.25
2019-03-21T00:02:21.368Z,33.26
2019-03-21T00:02:23.407Z,33.25
2019-03-21T00:02:26.407Z,33.25
2019-03-21T00:02:29.418Z,33.26
2019-03-21T00:02:32.427Z,33.36
2019-03-21T00:02:35.419Z,33.36
2019-03-21T00:02:38.399Z,33.36
2019-03-21T00:02:41.386Z,33.36
2019-03-21T00:02:44.385Z,33.36
2019-03-21T00:02:47.378Z,33.36
2019-03-21T00:02:50.407Z,33.26
2019-03-21T00:02:53.388Z,33.26
2019-03-21T00:02:56.439Z,33.26
2019-03-21T00:02:59.406Z,33.26
2019-03-21T00:03:02.393Z,33.36
2019-03-21T00:03:05.397Z,33.26
2019-03-21T00:03:08.387Z,33.36
2019-03-21T00:03:11.395Z,33.36
2019-03-21T00:03:14.387Z,33.36
2019-03-21T00:03:17.389Z,33.36
2019-03-21T00:03:20.377Z,33.36
2019-03-21T00:03:23.385Z,33.36
2019-03-21T00:03:26.418Z,33.26
2019-03-21T00:03:29.407Z,33.36
2019-03-21T00:03:32.387Z,33.36
2019-03-21T00:03:35.407Z,33.36
2019-03-21T00:03:38.397Z,33.36
2019-03-21T00:03:41.428Z,33.36
2019-03-21T00:03:44.397Z,33.36
2019-03-21T00:03:47.387Z,33.36
2019-03-21T00:03:50.407Z,33.36
2019-03-21T00:03:53.403Z,33.36
2019-03-21T00:03:56.388Z,33.36
2019-03-21T00:03:59.407Z,33.36
2019-03-21T00:04:02.417Z,33.36
2019-03-21T00:04:05.403Z,33.36
2019-03-21T00:04:08.557Z,33.36
2019-03-21T00:04:11.422Z,33.36
2019-03-21T00:04:14.492Z,33.36
2019-03-21T00:04:16.397Z,33.36
2019-03-21T00:04:19.395Z,33.36
2019-03-21T00:04:22.397Z,33.36
2019-03-21T00:04:25.387Z,33.36
2019-03-21T00:04:28.390Z,33.36
2019-03-21T00:04:31.376Z,33.36
2019-03-21T00:04:33.396Z,33.36
2019-03-21T00:04:36.387Z,33.36
2019-03-21T00:04:39.399Z,33.36
2019-03-21T00:04:42.397Z,33.36
2019-03-21T00:04:45.407Z,33.36
2019-03-21T00:04:48.397Z,33.36
2019-03-21T00:04:51.407Z,33.36
2019-03-21T00:04:54.399Z,33.36
2019-03-21T00:04:57.408Z,33.36
2019-03-21T00:05:00.390Z,33.36
2019-03-21T00:05:03.410Z,33.47
2019-03-21T00:05:06.377Z,33.36
2019-03-21T00:05:09.419Z,33.36
2019-03-21T00:05:12.427Z,33.36
2019-03-21T00:05:15.427Z,33.36
2019-03-21T00:05:18.406Z,33.36
2019-03-21T00:05:21.393Z,33.36
2019-03-21T00:05:24.387Z,33.36
2019-03-21T00:05:27.407Z,33.36
2019-03-21T00:05:30.398Z,33.36
2019-03-21T00:05:33.397Z,33.36
2019-03-21T00:05:36.389Z,33.36
2019-03-21T00:05:39.396Z,33.36
2019-03-21T00:05:42.387Z,33.36
2019-03-21T00:05:45.396Z,33.36
2019-03-21T00:05:48.387Z,33.36
2019-03-21T00:05:51.398Z,33.36
2019-03-21T00:05:54.407Z,33.36
2019-03-21T00:05:57.417Z,33.36
2019-03-21T00:06:00.406Z,33.36
2019-03-21T00:06:03.395Z,33.36
2019-03-21T00:06:06.407Z,33.36
2019-03-21T00:06:09.418Z,33.36
2019-03-21T00:06:12.388Z,33.36
2019-03-21T00:06:15.396Z,33.36
2019-03-21T00:06:18.417Z,33.36
2019-03-21T00:06:21.406Z,33.36
2019-03-21T00:06:24.397Z,33.36
2019-03-21T00:06:27.406Z,33.36
2019-03-21T00:06:30.407Z,33.36
2019-03-21T00:06:33.416Z,33.36
2019-03-21T00:06:36.393Z,33.36
2019-03-21T00:06:39.398Z,33.36
2019-03-21T00:06:41.428Z,33.36
2019-03-21T00:06:44.406Z,33.36
2019-03-21T00:06:47.417Z,33.26
2019-03-21T00:06:50.437Z,33.36
2019-03-21T00:06:53.406Z,33.36
2019-03-21T00:06:56.467Z,33.36
2019-03-21T00:06:59.407Z,33.36
2019-03-21T00:07:02.398Z,33.36
2019-03-21T00:07:05.399Z,33.26
2019-03-21T00:07:08.386Z,33.26
2019-03-21T00:07:11.422Z,33.26
2019-03-21T00:07:14.385Z,33.26
2019-03-21T00:07:17.397Z,33.36
2019-03-21T00:07:20.397Z,33.36
2019-03-21T00:07:23.407Z,33.36
2019-03-21T00:07:26.397Z,33.36
2019-03-21T00:07:29.397Z,33.36
2019-03-21T00:07:32.387Z,33.36
2019-03-21T00:07:35.377Z,33.36
2019-03-21T00:07:38.397Z,33.36
2019-03-21T00:07:41.453Z,33.47
2019-03-21T00:07:44.387Z,33.36
2019-03-21T00:07:47.396Z,33.47
2019-03-21T00:07:50.406Z,33.36
2019-03-21T00:07:53.418Z,33.47
2019-03-21T00:07:56.377Z,33.47
2019-03-21T00:07:59.408Z,33.47
2019-03-21T00:08:02.420Z,33.47
2019-03-21T00:08:05.431Z,33.36
2019-03-21T00:08:08.418Z,33.36
2019-03-21T00:08:11.386Z,33.36
2019-03-21T00:08:14.407Z,33.36
2019-03-21T00:08:17.407Z,33.36
2019-03-21T00:08:20.387Z,33.36
2019-03-21T00:08:23.397Z,33.47
2019-03-21T00:08:26.407Z,33.47
2019-03-21T00:08:29.406Z,33.36
2019-03-21T00:08:32.417Z,33.36
2019-03-21T00:08:35.406Z,33.36
2019-03-21T00:08:38.417Z,33.36
2019-03-21T00:08:41.420Z,33.36
2019-03-21T00:08:44.397Z,33.36
2019-03-21T00:08:47.395Z,33.26
2019-03-21T00:08:50.418Z,33.36
2019-03-21T00:08:53.396Z,33.36
2019-03-21T00:08:56.407Z,33.36
2019-03-21T00:08:59.394Z,33.36
2019-03-21T00:09:02.417Z,33.36
2019-03-21T00:09:05.397Z,33.36
2019-03-21T00:09:08.397Z,33.36
2019-03-21T00:09:11.399Z,33.36
2019-03-21T00:09:14.409Z,33.36
2019-03-21T00:09:17.434Z,33.26
2019-03-21T00:09:19.403Z,33.26
2019-03-21T00:09:22.417Z,33.26
2019-03-21T00:09:25.407Z,33.26
2019-03-21T00:09:28.387Z,33.26
2019-03-21T00:09:31.386Z,33.26
2019-03-21T00:09:34.436Z,33.26
2019-03-21T00:09:37.397Z,33.26
2019-03-21T00:09:39.422Z,33.26
2019-03-21T00:09:42.416Z,33.26
2019-03-21T00:09:45.397Z,33.26
2019-03-21T00:09:48.388Z,33.26
2019-03-21T00:09:51.409Z,33.26
2019-03-21T00:09:54.386Z,33.26
2019-03-21T00:09:57.417Z,33.26
2019-03-21T00:10:00.418Z,33.26
2019-03-21T00:10:03.414Z,33.26
2019-03-21T00:10:06.407Z,33.36
2019-03-21T00:10:09.418Z,33.36
2019-03-21T00:10:12.396Z,33.26
2019-03-21T00:10:14.417Z,33.26
2019-03-21T00:10:17.389Z,33.36
2019-03-21T00:10:20.386Z,33.36
2019-03-21T00:10:23.398Z,33.36
2019-03-21T00:10:26.397Z,33.36
2019-03-21T00:10:29.407Z,33.36
2019-03-21T00:10:32.398Z,33.26
2019-03-21T00:10:35.407Z,33.36
2019-03-21T00:10:38.397Z,33.36
2019-03-21T00:10:41.400Z,33.26
2019-03-21T00:10:44.386Z,33.26
2019-03-21T00:10:47.397Z,33.26
2019-03-21T00:10:50.407Z,33.26
2019-03-21T00:10:53.397Z,33.26
2019-03-21T00:10:56.397Z,33.26
2019-03-21T00:10:59.395Z,33.26
2019-03-21T00:11:02.400Z,33.26
2019-03-21T00:11:05.387Z,33.26
2019-03-21T00:11:08.387Z,33.26
2019-03-21T00:11:11.407Z,33.26
2019-03-21T00:11:14.420Z,33.26
2019-03-21T00:11:17.407Z,33.26
2019-03-21T00:11:20.396Z,33.26
2019-03-21T00:11:23.386Z,33.26
2019-03-21T00:11:26.407Z,33.26
2019-03-21T00:11:29.387Z,33.26
2019-03-21T00:11:32.388Z,33.36
2019-03-21T00:11:35.399Z,33.36
2019-03-21T00:11:38.406Z,33.36
2019-03-21T00:11:41.413Z,33.26
2019-03-21T00:11:44.427Z,33.26
2019-03-21T00:11:47.427Z,33.26
2019-03-21T00:11:49.397Z,33.26
2019-03-21T00:11:52.495Z,33.26
2019-03-21T00:11:55.386Z,33.26
2019-03-21T00:11:57.407Z,33.26
2019-03-21T00:11:59.400Z,33.26
2019-03-21T00:12:02.449Z,33.26
2019-03-21T00:12:05.404Z,33.26
2019-03-21T00:12:08.397Z,33.16
2019-03-21T00:12:11.439Z,33.16
2019-03-21T00:12:14.422Z,33.16
2019-03-21T00:12:16.397Z,33.16
2019-03-21T00:12:18.408Z,33.16
2019-03-21T00:12:21.387Z,33.16
2019-03-21T00:12:24.395Z,33.26
2019-03-21T00:12:27.395Z,33.26
2019-03-21T00:12:30.397Z,33.16
2019-03-21T00:12:33.406Z,33.16
2019-03-21T00:12:36.390Z,33.16
2019-03-21T00:12:39.397Z,33.16
2019-03-21T00:12:42.416Z,33.16
2019-03-21T00:12:45.413Z,33.16
2019-03-21T00:12:48.427Z,33.16
2019-03-21T00:12:51.387Z,33.16
2019-03-21T00:12:54.377Z,33.16
2019-03-21T00:12:57.418Z,33.16
2019-03-21T00:13:00.388Z,33.16
2019-03-21T00:13:03.406Z,33.16
2019-03-21T00:13:06.410Z,33.26
2019-03-21T00:13:09.397Z,33.26
2019-03-21T00:13:12.407Z,33.26
2019-03-21T00:13:15.408Z,33.26
2019-03-21T00:13:18.417Z,33.26
2019-03-21T00:13:21.407Z,33.26
2019-03-21T00:13:23.387Z,33.26
2019-03-21T00:13:26.387Z,33.26
2019-03-21T00:13:29.407Z,33.26
2019-03-21T00:13:32.400Z,33.26
2019-03-21T00:13:35.407Z,33.26
2019-03-21T00:13:38.416Z,33.26
2019-03-21T00:13:41.429Z,33.26
2019-03-21T00:13:44.397Z,33.26
2019-03-21T00:13:47.387Z,33.26
2019-03-21T00:13:50.396Z,33.36
2019-03-21T00:13:52.395Z,33.36
2019-03-21T00:14:06.422Z,33.36
2019-03-21T00:14:07.221Z,33.36
2019-03-21T00:14:10.422Z,33.47
2019-03-21T00:14:13.417Z,33.47
2019-03-21T00:14:16.397Z,33.36
2019-03-21T00:14:18.387Z,33.36
2019-03-21T00:14:21.397Z,33.36
2019-03-21T00:14:24.420Z,33.36
2019-03-21T00:14:27.427Z,33.36
2019-03-21T00:14:30.398Z,33.36
2019-03-21T00:14:33.407Z,33.36
2019-03-21T00:14:36.389Z,33.36
2019-03-21T00:14:39.396Z,33.36
2019-03-21T00:14:42.407Z,33.36
2019-03-21T00:14:45.409Z,33.26
2019-03-21T00:14:48.473Z,33.26
2019-03-21T00:14:51.434Z,33.26
2019-03-21T00:14:54.377Z,33.26
2019-03-21T00:14:57.413Z,33.26
2019-03-21T00:15:00.443Z,33.26
2019-03-21T00:15:03.415Z,33.26
2019-03-21T00:15:06.405Z,33.26
2019-03-21T00:15:09.387Z,33.16
2019-03-21T00:15:12.396Z,33.16
2019-03-21T00:15:15.407Z,33.16
2019-03-21T00:15:18.397Z,33.16
2019-03-21T00:15:21.406Z,33.16
2019-03-21T00:15:24.391Z,33.16
2019-03-21T00:15:27.410Z,33.16
2019-03-21T00:15:30.397Z,33.16
2019-03-21T00:15:33.407Z,33.16
2019-03-21T00:15:36.387Z,33.16
2019-03-21T00:15:39.413Z,33.26
2019-03-21T00:15:42.397Z,33.26
2019-03-21T00:15:44.396Z,33.26
2019-03-21T00:15:47.427Z,33.26
2019-03-21T00:15:50.417Z,33.16
2019-03-21T00:15:53.397Z,33.16
2019-03-21T00:15:56.387Z,33.26
2019-03-21T00:15:59.386Z,33.26
2019-03-21T00:16:02.387Z,33.16
2019-03-21T00:16:04.389Z,33.16
2019-03-21T00:16:07.397Z,33.16
2019-03-21T00:16:10.420Z,33.16
2019-03-21T00:16:13.711Z,33.16
2019-03-21T00:16:16.409Z,33.16
2019-03-21T00:16:19.395Z,33.16
2019-03-21T00:16:22.397Z,33.26
2019-03-21T00:16:25.397Z,33.16
2019-03-21T00:16:28.397Z,33.26
2019-03-21T00:16:30.411Z,33.26
2019-03-21T00:16:33.397Z,33.26
2019-03-21T00:16:36.387Z,33.26
2019-03-21T00:16:39.418Z,33.26
2019-03-21T00:16:42.417Z,33.26
2019-03-21T00:16:45.399Z,33.26
2019-03-21T00:16:48.397Z,33.26
2019-03-21T00:16:51.430Z,33.26
2019-03-21T00:16:54.437Z,33.26
2019-03-21T00:16:57.397Z,33.26
2019-03-21T00:17:00.388Z,33.26
2019-03-21T00:17:03.377Z,33.26
2019-03-21T00:17:06.419Z,33.26
2019-03-21T00:17:08.386Z,33.26
2019-03-21T00:17:11.420Z,33.26
2019-03-21T00:17:13.417Z,33.16
2019-03-21T00:17:16.387Z,33.16
2019-03-21T00:17:19.395Z,33.16
2019-03-21T00:17:22.407Z,33.16
2019-03-21T00:17:25.417Z,33.16
2019-03-21T00:17:28.407Z,33.16
2019-03-21T00:17:31.395Z,33.16
2019-03-21T00:17:34.417Z,33.16
2019-03-21T00:17:37.427Z,33.16
2019-03-21T00:17:40.400Z,33.26
2019-03-21T00:17:43.387Z,33.26
2019-03-21T00:17:46.397Z,33.26
2019-03-21T00:17:49.408Z,33.26
2019-03-21T00:17:52.396Z,33.26
2019-03-21T00:17:55.407Z,33.26
2019-03-21T00:17:58.417Z,33.26
2019-03-21T00:18:01.397Z,33.26
2019-03-21T00:18:04.386Z,33.26
2019-03-21T00:18:07.397Z,33.26
2019-03-21T00:18:10.381Z,33.26
2019-03-21T00:18:13.406Z,33.26
2019-03-21T00:18:16.418Z,33.26
2019-03-21T00:18:19.395Z,33.26
2019-03-21T00:18:22.417Z,33.26
2019-03-21T00:18:25.428Z,33.26
2019-03-21T00:18:28.396Z,33.26
2019-03-21T00:18:30.417Z,33.16
2019-03-21T00:18:33.387Z,33.16
2019-03-21T00:18:36.397Z,33.16
2019-03-21T00:18:39.387Z,33.16
2019-03-21T00:18:42.408Z,33.16
2019-03-21T00:18:45.396Z,33.26
2019-03-21T00:18:47.406Z,33.26
2019-03-21T00:18:50.410Z,33.26
2019-03-21T00:18:53.397Z,33.26
2019-03-21T00:18:56.407Z,33.26
2019-03-21T00:18:59.408Z,33.26
2019-03-21T00:19:02.421Z,33.26
2019-03-21T00:19:05.439Z,33.26
2019-03-21T00:19:08.428Z,33.26
2019-03-21T00:19:11.463Z,33.16
2019-03-21T00:19:14.406Z,33.16
2019-03-21T00:19:17.416Z,33.16
2019-03-21T00:19:20.407Z,33.16
2019-03-21T00:19:23.436Z,33.16
2019-03-21T00:19:26.426Z,33.16
2019-03-21T00:19:29.418Z,33.16
2019-03-21T00:19:32.387Z,33.16
2019-03-21T00:19:35.408Z,33.16
2019-03-21T00:19:38.398Z,33.16
2019-03-21T00:19:41.400Z,33.16
2019-03-21T00:19:44.436Z,33.16
2019-03-21T00:19:47.427Z,33.16
2019-03-21T00:19:50.417Z,33.16
2019-03-21T00:19:53.417Z,33.26
2019-03-21T00:19:56.427Z,33.16
2019-03-21T00:19:59.416Z,33.16
2019-03-21T00:20:02.406Z,33.16
2019-03-21T00:20:05.397Z,33.26
2019-03-21T00:20:08.408Z,33.26
2019-03-21T00:20:11.426Z,33.26
2019-03-21T00:20:14.407Z,33.26
2019-03-21T00:20:17.417Z,33.26
2019-03-21T00:20:20.399Z,33.26
2019-03-21T00:20:23.408Z,33.26
2019-03-21T00:20:26.416Z,33.26
2019-03-21T00:20:29.388Z,33.16
2019-03-21T00:20:32.397Z,33.16
2019-03-21T00:20:34.416Z,33.16
2019-03-21T00:20:37.387Z,33.16
2019-03-21T00:20:40.422Z,33.16
2019-03-21T00:20:43.407Z,33.16
2019-03-21T00:20:46.449Z,33.16
2019-03-21T00:20:49.423Z,33.16
2019-03-21T00:20:52.387Z,33.26
2019-03-21T00:20:55.417Z,33.26
2019-03-21T00:20:58.397Z,33.26
2019-03-21T00:21:01.387Z,33.26
2019-03-21T00:21:04.418Z,33.26
2019-03-21T00:21:07.406Z,33.26
2019-03-21T00:21:10.414Z,33.26
2019-03-21T00:21:13.406Z,33.26
2019-03-21T00:21:16.399Z,33.26
2019-03-21T00:21:19.411Z,33.26
2019-03-21T00:21:22.397Z,33.36
2019-03-21T00:21:25.407Z,33.36
2019-03-21T00:21:28.406Z,33.36
2019-03-21T00:21:31.397Z,33.36
2019-03-21T00:21:34.419Z,33.36
2019-03-21T00:21:37.406Z,33.36
2019-03-21T00:21:40.387Z,33.36
2019-03-21T00:21:43.397Z,33.26
2019-03-21T00:21:46.408Z,33.26
2019-03-21T00:21:49.396Z,33.26
2019-03-21T00:21:52.399Z,33.26
2019-03-21T00:21:55.446Z,33.26
2019-03-21T00:21:58.407Z,33.26
2019-03-21T00:22:01.397Z,33.26
2019-03-21T00:22:04.393Z,33.26
2019-03-21T00:22:07.391Z,33.26
2019-03-21T00:22:10.411Z,33.26
2019-03-21T00:22:12.387Z,33.26
2019-03-21T00:22:15.397Z,33.16
2019-03-21T00:22:18.397Z,33.16
2019-03-21T00:22:21.387Z,33.16
2019-03-21T00:22:24.407Z,33.16
2019-03-21T00:22:27.395Z,33.16
2019-03-21T00:22:30.427Z,33.16
2019-03-21T00:22:33.395Z,33.16
2019-03-21T00:22:36.387Z,33.26
2019-03-21T00:22:39.422Z,33.16
2019-03-21T00:22:42.407Z,33.16
2019-03-21T00:22:45.407Z,33.16
2019-03-21T00:22:48.416Z,33.16
2019-03-21T00:22:51.389Z,33.16
2019-03-21T00:22:54.377Z,33.16
2019-03-21T00:22:57.408Z,33.16
2019-03-21T00:23:00.399Z,33.16
2019-03-21T00:23:03.406Z,33.16
2019-03-21T00:23:06.407Z,33.16
2019-03-21T00:23:09.416Z,33.16
2019-03-21T00:23:12.418Z,33.16
2019-03-21T00:23:15.407Z,33.16
2019-03-21T00:23:18.407Z,33.26
2019-03-21T00:23:21.397Z,33.26
2019-03-21T00:23:24.387Z,33.26
2019-03-21T00:23:27.397Z,33.26
2019-03-21T00:23:30.407Z,33.26
2019-03-21T00:23:33.407Z,33.16
2019-03-21T00:23:36.416Z,33.26
2019-03-21T00:23:39.393Z,33.16
2019-03-21T00:23:42.409Z,33.16
2019-03-21T00:23:45.393Z,33.16
2019-03-21T00:23:48.387Z,33.16
2019-03-21T00:23:51.426Z,33.16
2019-03-21T00:23:54.417Z,33.16
2019-03-21T00:23:57.407Z,33.16
2019-03-21T00:23:59.387Z,33.16
2019-03-21T00:24:02.431Z,33.16
2019-03-21T00:24:05.417Z,33.16
2019-03-21T00:24:08.407Z,33.16
2019-03-21T00:24:11.406Z,33.16
2019-03-21T00:24:14.416Z,33.16
2019-03-21T00:24:17.397Z,33.16
2019-03-21T00:24:20.386Z,33.16
2019-03-21T00:24:22.407Z,33.16
2019-03-21T00:24:25.410Z,33.16
2019-03-21T00:24:28.416Z,33.16
2019-03-21T00:24:31.407Z,33.16
2019-03-21T00:24:34.416Z,33.16
2019-03-21T00:24:37.399Z,33.16
2019-03-21T00:24:40.414Z,33.16
2019-03-21T00:24:43.407Z,33.06
2019-03-21T00:24:46.417Z,33.06
2019-03-21T00:24:48.407Z,33.06
2019-03-21T00:24:51.412Z,33.06
2019-03-21T00:24:54.413Z,33.06
2019-03-21T00:24:57.426Z,33.06
2019-03-21T00:25:00.392Z,33.06
2019-03-21T00:25:03.427Z,33.06
2019-03-21T00:25:06.407Z,33.06
2019-03-21T00:25:09.422Z,33.06
2019-03-21T00:25:12.413Z,33.06
2019-03-21T00:25:15.426Z,33.06
2019-03-21T00:25:18.407Z,33.06
2019-03-21T00:25:21.408Z,33.06
2019-03-21T00:25:24.402Z,33.06
2019-03-21T00:25:27.407Z,33.06
2019-03-21T00:25:30.425Z,33.06
2019-03-21T00:25:33.389Z,33.06
2019-03-21T00:25:36.427Z,33.06
2019-03-21T00:25:39.422Z,33.06
2019-03-21T00:25:42.418Z,33.06
2019-03-21T00:25:45.416Z,33.06
2019-03-21T00:25:48.386Z,33.06
2019-03-21T00:25:51.427Z,33.06
2019-03-21T00:25:54.387Z,33.06
2019-03-21T00:25:57.407Z,33.06
2019-03-21T00:26:00.417Z,33.06
2019-03-21T00:26:03.410Z,33.06
2019-03-21T00:26:06.400Z,33.06
2019-03-21T00:26:09.422Z,33.06
2019-03-21T00:26:12.387Z,33.06
2019-03-21T00:26:15.421Z,33.06
2019-03-21T00:26:18.407Z,33.06
2019-03-21T00:26:21.428Z,33.16
2019-03-21T00:26:24.407Z,33.06
2019-03-21T00:26:27.407Z,33.06
2019-03-21T00:26:31.454Z,33.06
2019-03-21T00:26:34.396Z,33.06
2019-03-21T00:26:37.427Z,33.06
2019-03-21T00:26:40.437Z,33.06
2019-03-21T00:26:43.447Z,33.06
2019-03-21T00:26:46.407Z,33.06
2019-03-21T00:26:49.427Z,33.16
2019-03-21T00:26:52.391Z,33.16
2019-03-21T00:26:55.428Z,33.16
2019-03-21T00:26:58.446Z,33.16
2019-03-21T00:27:01.410Z,33.16
2019-03-21T00:27:04.433Z,33.16
2019-03-21T00:27:07.432Z,33.16
2019-03-21T00:27:10.417Z,33.16
2019-03-21T00:27:13.427Z,33.16
2019-03-21T00:27:16.397Z,33.16
2019-03-21T00:27:18.427Z,33.16
2019-03-21T00:27:21.407Z,33.16
2019-03-21T00:27:24.387Z,33.16
2019-03-21T00:27:27.395Z,33.16
2019-03-21T00:27:30.407Z,33.06
2019-03-21T00:27:33.407Z,33.06
2019-03-21T00:27:35.407Z,33.06
2019-03-21T00:27:37.426Z,33.06
2019-03-21T00:27:40.387Z,33.06
2019-03-21T00:27:43.406Z,33.06
2019-03-21T00:27:46.417Z,33.06
2019-03-21T00:27:49.407Z,33.06
2019-03-21T00:27:52.398Z,33.06
2019-03-21T00:27:55.418Z,33.06
2019-03-21T00:27:58.387Z,33.06
2019-03-21T00:28:01.417Z,33.06
2019-03-21T00:28:04.385Z,33.06
2019-03-21T00:28:07.417Z,33.06
2019-03-21T00:28:10.422Z,33.06
2019-03-21T00:28:13.428Z,33.06
2019-03-21T00:28:16.387Z,33.06
2019-03-21T00:28:19.426Z,33.06
2019-03-21T00:28:22.417Z,33.06
2019-03-21T00:28:25.397Z,33.06
2019-03-21T00:28:28.430Z,33.06
2019-03-21T00:28:31.417Z,33.16
2019-03-21T00:28:34.387Z,33.16
2019-03-21T00:28:37.419Z,33.16
2019-03-21T00:28:40.414Z,33.16
2019-03-21T00:28:43.415Z,33.16
2019-03-21T00:28:46.427Z,33.16
2019-03-21T00:28:49.407Z,33.16
2019-03-21T00:28:51.426Z,33.16
2019-03-21T00:28:54.392Z,33.16
2019-03-21T00:28:57.397Z,33.16
2019-03-21T00:29:00.414Z,33.16
2019-03-21T00:29:03.410Z,33.16
2019-03-21T00:29:06.427Z,33.16
2019-03-21T00:29:09.416Z,33.16
2019-03-21T00:29:12.417Z,33.16
2019-03-21T00:29:15.417Z,33.16
2019-03-21T00:29:18.407Z,33.16
2019-03-21T00:29:21.417Z,33.16
2019-03-21T00:29:24.398Z,33.16
2019-03-21T00:29:27.407Z,33.06
2019-03-21T00:29:30.407Z,33.06
2019-03-21T00:29:33.416Z,33.06
2019-03-21T00:29:36.387Z,33.16
2019-03-21T00:29:39.387Z,33.06
2019-03-21T00:29:42.397Z,33.06
2019-03-21T00:29:45.388Z,33.06
2019-03-21T00:29:47.407Z,33.06
2019-03-21T00:29:50.418Z,33.06
2019-03-21T00:29:53.408Z,33.06
2019-03-21T00:29:56.431Z,33.06
2019-03-21T00:29:59.407Z,33.06
2019-03-21T00:30:02.388Z,33.06
2019-03-21T00:30:05.397Z,33.06
2019-03-21T00:30:08.387Z,33.06
2019-03-21T00:30:11.420Z,33.06
2019-03-21T00:30:14.417Z,33.06
2019-03-21T00:30:17.427Z,33.06
2019-03-21T00:30:20.401Z,33.06
2019-03-21T00:30:22.477Z,33.06
2019-03-21T00:30:25.407Z,33.06
2019-03-21T00:30:28.400Z,33.06
2019-03-21T00:30:31.407Z,33.06
2019-03-21T00:30:33.417Z,33.06
2019-03-21T00:30:36.416Z,33.06
2019-03-21T00:30:38.420Z,33.06
2019-03-21T00:30:41.416Z,33.06
2019-03-21T00:30:44.432Z,33.06
2019-03-21T00:30:47.429Z,33.06
2019-03-21T00:30:50.417Z,33.06
2019-03-21T00:30:53.426Z,33.06
2019-03-21T00:30:56.406Z,33.06
2019-03-21T00:30:59.427Z,33.06
2019-03-21T00:31:02.419Z,33.06
2019-03-21T00:31:05.407Z,33.06
2019-03-21T00:31:08.387Z,33.06
2019-03-21T00:31:11.422Z,33.06
2019-03-21T00:31:14.419Z,33.06
2019-03-21T00:31:17.406Z,33.06
2019-03-21T00:31:20.417Z,33.06
2019-03-21T00:31:23.410Z,33.06
2019-03-21T00:31:26.419Z,33.06
2019-03-21T00:31:29.427Z,33.06
2019-03-21T00:31:32.397Z,33.06
2019-03-21T00:31:35.417Z,33.06
2019-03-21T00:31:38.417Z,33.06
2019-03-21T00:31:41.422Z,33.06
2019-03-21T00:31:44.419Z,33.06
2019-03-21T00:31:47.413Z,33.06
2019-03-21T00:31:50.410Z,33.06
2019-03-21T00:31:53.427Z,33.06
2019-03-21T00:31:56.397Z,33.06
2019-03-21T00:31:59.437Z,33.06
2019-03-21T00:32:02.411Z,33.06
2019-03-21T00:32:05.422Z,33.06
2019-03-21T00:32:08.407Z,33.06
2019-03-21T00:32:11.428Z,33.06
2019-03-21T00:32:14.417Z,33.06
2019-03-21T00:32:17.417Z,33.06
2019-03-21T00:32:20.407Z,33.06
2019-03-21T00:32:23.417Z,32.97
2019-03-21T00:32:26.390Z,32.97
2019-03-21T00:32:29.427Z,33.06
2019-03-21T00:32:32.427Z,33.06
2019-03-21T00:32:35.427Z,33.06
2019-03-21T00:32:38.408Z,33.06
2019-03-21T00:32:41.415Z,33.06
2019-03-21T00:32:44.400Z,33.06
2019-03-21T00:32:46.417Z,33.06
2019-03-21T00:32:49.427Z,33.06
2019-03-21T00:32:52.386Z,33.06
2019-03-21T00:32:55.396Z,33.06
2019-03-21T00:32:58.426Z,33.06
2019-03-21T00:33:01.417Z,33.06
2019-03-21T00:33:03.407Z,33.06
2019-03-21T00:33:06.425Z,33.06
2019-03-21T00:33:09.424Z,32.97
2019-03-21T00:33:12.388Z,33.06
2019-03-21T00:33:15.434Z,33.06
2019-03-21T00:33:18.416Z,33.06
2019-03-21T00:33:21.407Z,33.06
2019-03-21T00:33:24.437Z,33.06
2019-03-21T00:33:27.427Z,33.06
2019-03-21T00:33:30.418Z,33.06
2019-03-21T00:33:33.427Z,33.06
2019-03-21T00:33:36.407Z,33.06
2019-03-21T00:33:39.412Z,32.97
2019-03-21T00:33:42.427Z,33.06
2019-03-21T00:33:45.406Z,33.06
2019-03-21T00:33:48.397Z,33.06
2019-03-21T00:33:51.407Z,33.06
2019-03-21T00:33:54.411Z,33.06
2019-03-21T00:33:57.417Z,32.97
2019-03-21T00:34:00.416Z,32.97
2019-03-21T00:34:03.402Z,32.97
2019-03-21T00:34:06.407Z,32.97
2019-03-21T00:34:09.386Z,32.97
2019-03-21T00:34:12.445Z,32.97
2019-03-21T00:34:15.427Z,32.97
2019-03-21T00:34:18.407Z,32.97
2019-03-21T00:34:21.419Z,32.97
2019-03-21T00:34:24.426Z,32.97
2019-03-21T00:34:27.387Z,32.97
2019-03-21T00:34:29.416Z,32.97
2019-03-21T00:34:32.408Z,32.97
2019-03-21T00:34:35.389Z,33.06
2019-03-21T00:34:38.396Z,33.06
2019-03-21T00:34:41.414Z,32.97
2019-03-21T00:34:44.387Z,32.97
2019-03-21T00:34:47.426Z,32.97
2019-03-21T00:34:50.389Z,32.97
2019-03-21T00:34:53.429Z,33.06
2019-03-21T00:34:56.437Z,33.06
2019-03-21T00:34:59.387Z,33.06
2019-03-21T00:35:02.407Z,33.06
2019-03-21T00:35:05.417Z,33.06
2019-03-21T00:35:08.397Z,33.06
2019-03-21T00:35:11.420Z,32.97
2019-03-21T00:35:14.417Z,32.97
2019-03-21T00:35:17.410Z,32.97
2019-03-21T00:35:20.417Z,32.97
2019-03-21T00:35:23.427Z,32.97
2019-03-21T00:35:26.413Z,33.06
2019-03-21T00:35:29.418Z,32.97
2019-03-21T00:35:32.389Z,33.06
2019-03-21T00:35:35.430Z,33.06
2019-03-21T00:35:38.757Z,33.06
2019-03-21T00:35:41.414Z,33.06
2019-03-21T00:35:44.467Z,33.06
2019-03-21T00:35:47.427Z,33.06
2019-03-21T00:35:50.412Z,33.06
2019-03-21T00:35:53.419Z,32.97
2019-03-21T00:35:56.390Z,33.06
2019-03-21T00:35:59.407Z,33.06
2019-03-21T00:36:02.389Z,33.06
2019-03-21T00:36:05.427Z,33.06
2019-03-21T00:36:08.417Z,33.06
2019-03-21T00:36:11.413Z,33.06
2019-03-21T00:36:14.407Z,33.06
2019-03-21T00:36:17.424Z,33.06
2019-03-21T00:36:20.387Z,33.06
2019-03-21T00:36:23.430Z,33.06
2019-03-21T00:36:26.418Z,33.06
2019-03-21T00:36:29.408Z,33.06
2019-03-21T00:36:32.480Z,33.06
2019-03-21T00:36:35.427Z,33.06
2019-03-21T00:36:38.397Z,33.06
2019-03-21T00:36:41.427Z,33.06
2019-03-21T00:36:44.398Z,33.06
2019-03-21T00:36:47.418Z,33.06
2019-03-21T00:36:50.432Z,33.06
2019-03-21T00:36:53.420Z,33.06
2019-03-21T00:36:56.410Z,33.06
2019-03-21T00:36:59.427Z,33.06
2019-03-21T00:37:02.438Z,33.06
2019-03-21T00:37:05.438Z,33.06
2019-03-21T00:37:08.386Z,33.06
2019-03-21T00:37:11.420Z,33.06
2019-03-21T00:37:14.397Z,33.06
2019-03-21T00:37:17.407Z,33.06
2019-03-21T00:37:20.417Z,32.97
2019-03-21T00:37:23.407Z,32.97
2019-03-21T00:37:26.417Z,32.97
2019-03-21T00:37:29.406Z,32.97
2019-03-21T00:37:32.400Z,32.97
2019-03-21T00:37:35.417Z,32.97
2019-03-21T00:37:38.407Z,32.97
2019-03-21T00:37:41.421Z,32.97
2019-03-21T00:37:44.406Z,32.97
2019-03-21T00:37:47.428Z,32.97
2019-03-21T00:37:50.396Z,32.97
2019-03-21T00:37:53.412Z,32.97
2019-03-21T00:37:56.447Z,32.97
2019-03-21T00:37:59.410Z,32.97
2019-03-21T00:38:02.421Z,32.97
2019-03-21T00:38:05.429Z,32.97
2019-03-21T00:38:08.418Z,32.97